createdAt,value
2019-05-15T00:00:19.748Z,28.30
2019-05-15T00:02:48.327Z,22.13
2019-05-15T00:05:18.832Z,26.60
2019-05-15T00:07:48.419Z,27.35
2019-05-15T00:10:18.068Z,25.17
2019-05-15T00:12:48.634Z,21.62
2019-05-15T00:15:18.224Z,21.90
2019-05-15T00:17:48.607Z,25.62
2019-05-15T00:20:20.064Z,24.67
2019-05-15T00:22:48.408Z,22.82
2019-05-15T00:25:18.867Z,23.52
2019-05-15T00:27:49.130Z,23.18
2019-05-15T00:30:18.435Z,25.50
2019-05-15T00:32:48.656Z,28.98
2019-05-15T00:35:18.384Z,27.70
2019-05-15T00:37:49.320Z,25.72
2019-05-15T00:40:18.378Z,24.47
2019-05-15T00:42:48.875Z,27.35
2019-05-15T00:45:18.753Z,25.65
2019-05-15T00:47:48.714Z,22.87
2019-05-15T00:50:18.305Z,23.47
2019-05-15T00:52:48.457Z,24.43
2019-05-15T00:55:19.137Z,25.30
2019-05-15T00:57:48.559Z,22.32
2019-05-15T01:00:38.165Z,30.35
2019-05-15T01:03:08.746Z,23.77
2019-05-15T01:05:38.746Z,23.15
2019-05-15T01:08:08.323Z,21.68
2019-05-15T01:10:38.635Z,23.30
2019-05-15T01:13:08.354Z,27.02
2019-05-15T01:15:38.887Z,27.95
2019-05-15T01:18:09.342Z,22.85
2019-05-15T01:20:39.159Z,25.02
2019-05-15T01:23:08.811Z,22.60
2019-05-15T01:25:38.935Z,23.70
2019-05-15T01:28:09.424Z,21.42
2019-05-15T01:30:39.356Z,25.80
2019-05-15T01:33:08.838Z,22.27
2019-05-15T01:35:38.284Z,23.30
2019-05-15T01:38:08.102Z,22.73
2019-05-15T01:40:38.502Z,25.20
2019-05-15T01:43:09.248Z,23.40
2019-05-15T01:45:39.320Z,24.82
2019-05-15T01:48:08.207Z,23.00
2019-05-15T01:50:38.671Z,24.10
2019-05-15T01:53:08.190Z,23.15
2019-05-15T01:55:39.632Z,23.12
2019-05-15T01:58:09.135Z,26.97
2019-05-15T02:00:39.114Z,27.80
2019-05-15T02:03:09.688Z,23.07
2019-05-15T02:05:39.119Z,25.02
2019-05-15T02:08:08.343Z,22.60
2019-05-15T02:10:39.178Z,24.87
2019-05-15T02:13:08.634Z,25.32
2019-05-15T02:15:39.542Z,27.73
2019-05-15T02:18:08.417Z,28.05
2019-05-15T02:20:39.029Z,22.05
2019-05-15T02:23:11.678Z,24.87
2019-05-15T02:25:38.836Z,24.50
2019-05-15T02:28:09.334Z,24.07
2019-05-15T02:30:40.424Z,24.77
2019-05-15T02:33:10.595Z,25.80
2019-05-15T02:35:39.489Z,24.37
2019-05-15T02:38:10.097Z,24.47
2019-05-15T02:40:40.488Z,24.30
2019-05-15T02:43:10.214Z,27.35
2019-05-15T02:45:41.929Z,24.80
2019-05-15T02:48:09.398Z,26.23
2019-05-15T02:50:39.242Z,28.40
2019-05-15T02:53:09.850Z,33.53
2019-05-15T02:55:40.344Z,24.27
2019-05-15T02:58:09.909Z,25.55
2019-05-15T03:00:47.469Z,26.20
2019-05-15T03:03:10.104Z,27.02
2019-05-15T03:05:40.782Z,28.25
2019-05-15T03:08:09.746Z,30.55
2019-05-15T03:10:40.609Z,27.70
2019-05-15T03:13:09.907Z,26.77
2019-05-15T03:15:40.298Z,29.82
2019-05-15T03:18:09.845Z,29.82
2019-05-15T03:20:39.602Z,35.92
2019-05-15T03:23:09.774Z,31.15
2019-05-15T03:25:40.320Z,31.48
2019-05-15T03:28:10.449Z,30.97
2019-05-15T03:31:06.493Z,28.45
2019-05-15T03:33:17.680Z,31.05
2019-05-15T03:35:43.037Z,34.25
2019-05-15T03:38:10.256Z,29.90
2019-05-15T03:40:39.560Z,30.23
2019-05-15T03:43:09.242Z,28.60
2019-05-15T03:45:40.445Z,36.73
2019-05-15T03:48:09.343Z,29.80
2019-05-15T03:50:40.152Z,36.28
2019-05-15T03:53:10.283Z,34.67
2019-05-15T03:55:40.382Z,33.13
2019-05-15T03:58:10.263Z,35.17
2019-05-15T04:00:39.987Z,37.88
2019-05-15T04:03:10.710Z,33.65
2019-05-15T04:05:39.489Z,35.52
2019-05-15T04:08:11.055Z,41.30
2019-05-15T04:10:39.842Z,32.93
2019-05-15T04:13:09.517Z,38.45
2019-05-15T04:15:39.538Z,38.88
2019-05-15T04:18:09.334Z,37.88
2019-05-15T04:20:40.672Z,35.48
2019-05-15T04:23:10.380Z,38.40
2019-05-15T04:25:39.697Z,38.90
2019-05-15T04:28:11.245Z,37.10
2019-05-15T04:30:39.843Z,36.13
2019-05-15T04:33:09.475Z,40.78
2019-05-15T04:35:40.619Z,37.60
2019-05-15T04:38:09.602Z,35.52
2019-05-15T04:40:39.762Z,38.17
2019-05-15T04:43:10.796Z,44.55
2019-05-15T04:45:40.139Z,41.98
2019-05-15T04:48:09.948Z,38.63
2019-05-15T04:50:40.228Z,38.23
2019-05-15T04:53:10.776Z,38.48
2019-05-15T04:55:40.581Z,37.78
2019-05-15T04:58:10.327Z,42.60
2019-05-15T05:00:49.583Z,43.23
2019-05-15T05:03:19.833Z,35.48
2019-05-15T05:05:50.093Z,42.30
2019-05-15T05:08:20.416Z,42.45
2019-05-15T05:10:49.561Z,45.58
2019-05-15T05:13:19.857Z,43.40
2019-05-15T05:15:50.090Z,40.98
2019-05-15T05:18:19.439Z,45.52
2019-05-15T05:20:48.933Z,39.78
2019-05-15T05:23:19.371Z,46.02
2019-05-15T05:25:49.097Z,41.30
2019-05-15T05:28:18.439Z,37.13
2019-05-15T05:30:48.315Z,47.55
2019-05-15T05:33:18.540Z,41.95
2019-05-15T05:35:48.614Z,41.80
2019-05-15T05:38:19.167Z,34.88
2019-05-15T05:40:50.151Z,45.92
2019-05-15T05:43:19.652Z,43.10
2019-05-15T05:45:49.366Z,39.30
2019-05-15T05:48:19.286Z,39.67
2019-05-15T05:50:49.778Z,36.60
2019-05-15T05:53:20.831Z,41.95
2019-05-15T05:55:51.180Z,40.73
2019-05-15T05:58:19.728Z,41.98
2019-05-15T06:00:49.824Z,38.28
2019-05-15T06:03:19.628Z,40.30
2019-05-15T06:05:49.576Z,36.58
2019-05-15T06:08:19.791Z,37.88
2019-05-15T06:10:49.493Z,36.23
2019-05-15T06:13:19.303Z,37.42
2019-05-15T06:15:48.905Z,31.77
2019-05-15T06:18:19.620Z,38.63
2019-05-15T06:20:49.398Z,30.68
2019-05-15T06:23:25.139Z,32.65
2019-05-15T06:25:50.098Z,27.20
2019-05-15T06:28:20.045Z,30.10
2019-05-15T06:30:49.049Z,26.17
2019-05-15T06:33:18.757Z,29.20
2019-05-15T06:35:48.983Z,26.07
2019-05-15T06:38:19.617Z,22.70
2019-05-15T06:40:50.146Z,23.95
2019-05-15T06:43:19.770Z,20.75
2019-05-15T06:45:49.309Z,20.70
2019-05-15T06:48:18.747Z,23.52
2019-05-15T06:50:49.039Z,20.65
2019-05-15T06:53:19.250Z,15.83
2019-05-15T06:55:48.770Z,22.40
2019-05-15T06:58:19.024Z,16.12
2019-05-15T07:00:48.885Z,18.42
2019-05-15T07:03:25.258Z,16.77
2019-05-15T07:05:50.797Z,18.87
2019-05-15T07:08:19.261Z,23.05
2019-05-15T07:10:48.617Z,17.57
2019-05-15T07:13:18.327Z,14.13
2019-05-15T07:15:49.441Z,14.65
2019-05-15T07:18:19.746Z,19.45
2019-05-15T07:20:49.095Z,19.30
2019-05-15T07:23:18.938Z,13.93
2019-05-15T07:25:49.842Z,14.30
2019-05-15T07:28:18.402Z,14.00
2019-05-15T07:30:49.346Z,16.45
2019-05-15T07:33:28.087Z,12.50
2019-05-15T07:35:49.194Z,12.03
2019-05-15T07:38:19.868Z,15.13
2019-05-15T07:40:56.911Z,10.40
2019-05-15T07:43:18.562Z,9.78
2019-05-15T07:45:53.756Z,9.10
2019-05-15T07:48:18.896Z,9.75
2019-05-15T07:50:49.652Z,9.50
2019-05-15T07:53:19.617Z,9.85
2019-05-15T07:55:50.359Z,8.05
2019-05-15T07:58:20.962Z,8.58
2019-05-15T08:00:49.244Z,9.95
2019-05-15T08:03:18.525Z,7.92
2019-05-15T08:05:58.217Z,7.75
2019-05-15T08:08:18.495Z,9.45
2019-05-15T08:10:49.022Z,6.28
2019-05-15T08:13:18.461Z,7.28
2019-05-15T08:15:48.752Z,7.37
2019-05-15T08:18:18.839Z,9.48
2019-05-15T08:20:49.168Z,7.95
2019-05-15T08:23:19.250Z,8.03
2019-05-15T08:25:48.717Z,8.00
2019-05-15T08:28:19.078Z,9.45
2019-05-15T08:30:49.515Z,8.55
2019-05-15T08:33:18.498Z,9.15
2019-05-15T08:35:51.390Z,10.48
2019-05-15T08:38:18.330Z,7.85
2019-05-15T08:40:49.047Z,10.05
2019-05-15T08:43:18.341Z,8.05
2019-05-15T08:45:49.607Z,9.53
2019-05-15T08:48:18.679Z,11.48
2019-05-15T08:50:48.737Z,11.03
2019-05-15T08:53:19.474Z,9.88
2019-05-15T08:55:49.238Z,13.10
2019-05-15T08:58:20.200Z,10.30
2019-05-15T09:00:52.515Z,11.75
2019-05-15T09:03:18.571Z,9.43
2019-05-15T09:05:48.464Z,10.68
2019-05-15T09:08:19.358Z,13.45
2019-05-15T09:10:50.309Z,10.63
2019-05-15T09:13:19.053Z,10.15
2019-05-15T09:15:49.161Z,8.80
2019-05-15T09:18:20.176Z,9.20
2019-05-15T09:20:49.210Z,7.50
2019-05-15T09:23:19.331Z,6.60
2019-05-15T09:25:49.627Z,7.20
2019-05-15T09:28:19.481Z,7.72
2019-05-15T09:30:49.042Z,6.47
2019-05-15T09:33:20.125Z,6.67
2019-05-15T09:35:49.112Z,8.08
2019-05-15T09:38:18.595Z,7.30
2019-05-15T09:40:50.186Z,9.23
2019-05-15T09:43:18.457Z,8.10
2019-05-15T09:45:49.231Z,8.38
2019-05-15T09:48:19.686Z,9.00
2019-05-15T09:50:49.252Z,7.67
2019-05-15T09:53:19.017Z,11.18
2019-05-15T09:55:49.282Z,6.55
2019-05-15T09:58:20.506Z,6.25
2019-05-15T10:00:51.854Z,5.90
2019-05-15T10:03:20.124Z,6.95
2019-05-15T10:05:48.787Z,5.12
2019-05-15T10:08:20.875Z,3.95
2019-05-15T10:10:48.817Z,3.92
2019-05-15T10:13:18.588Z,6.95
2019-05-15T10:15:50.699Z,7.00
2019-05-15T10:18:19.080Z,5.12
2019-05-15T10:20:48.466Z,7.10
2019-05-15T10:23:19.600Z,5.58
2019-05-15T10:25:48.660Z,7.47
2019-05-15T10:28:19.297Z,8.33
2019-05-15T10:30:49.681Z,6.60
2019-05-15T10:33:19.690Z,6.75
2019-05-15T10:35:49.050Z,6.85
2019-05-15T10:38:19.303Z,4.97
2019-05-15T10:40:59.989Z,6.22
2019-05-15T10:43:20.629Z,5.33
2019-05-15T10:45:49.994Z,5.42
2019-05-15T10:48:19.277Z,4.67
2019-05-15T10:50:49.685Z,4.67
2019-05-15T10:53:19.463Z,5.85
2019-05-15T10:55:49.626Z,8.45
2019-05-15T10:58:21.795Z,5.33
2019-05-15T11:00:49.381Z,5.28
2019-05-15T11:03:19.876Z,6.10
2019-05-15T11:05:49.151Z,5.10
2019-05-15T11:08:18.831Z,5.80
2019-05-15T11:10:49.471Z,4.85
2019-05-15T11:13:18.840Z,3.95
2019-05-15T11:15:49.119Z,4.40
2019-05-15T11:18:18.319Z,3.20
2019-05-15T11:20:48.626Z,5.17
2019-05-15T11:23:20.133Z,4.20
2019-05-15T11:25:48.790Z,5.42
2019-05-15T11:28:18.018Z,6.67
2019-05-15T11:30:49.101Z,5.28
2019-05-15T11:33:18.764Z,4.65
2019-05-15T11:35:57.912Z,3.80
2019-05-15T11:38:19.498Z,3.75
2019-05-15T11:40:47.729Z,3.75
2019-05-15T11:43:16.293Z,3.35
2019-05-15T11:45:45.088Z,8.00
2019-05-15T11:48:13.628Z,5.60
2019-05-15T11:50:42.262Z,5.70
2019-05-15T11:53:10.824Z,4.50
2019-05-15T11:55:39.333Z,6.80
2019-05-15T11:58:09.327Z,5.22
2019-05-15T12:00:38.701Z,8.23
2019-05-15T12:03:08.912Z,5.28
2019-05-15T12:05:38.716Z,4.75
2019-05-15T12:08:09.067Z,6.33
2019-05-15T12:10:38.959Z,4.05
2019-05-15T12:13:09.774Z,4.70
2019-05-15T12:15:38.872Z,5.33
2019-05-15T12:18:08.843Z,5.97
2019-05-15T12:20:38.937Z,5.08
2019-05-15T12:23:09.115Z,6.97
2019-05-15T12:25:39.595Z,7.83
2019-05-15T12:28:09.578Z,6.50
2019-05-15T12:30:40.317Z,6.40
2019-05-15T12:33:09.728Z,6.90
2019-05-15T12:35:39.853Z,6.40
2019-05-15T12:38:10.023Z,6.62
2019-05-15T13:00:41.040Z,8.23
2019-05-15T13:03:09.574Z,10.45
2019-05-15T13:05:39.167Z,7.45
2019-05-15T13:08:08.580Z,7.10
2019-05-15T13:10:38.570Z,7.17
2019-05-15T13:13:09.587Z,8.15
2019-05-15T13:15:40.827Z,8.98
2019-05-15T13:18:14.270Z,11.55
2019-05-15T13:20:39.090Z,10.58
2019-05-15T13:23:09.326Z,8.30
2019-05-15T13:25:39.389Z,9.45
2019-05-15T13:28:08.832Z,9.23
2019-05-15T13:30:41.053Z,8.58
2019-05-15T13:33:10.083Z,8.25
2019-05-15T13:35:38.292Z,7.35
2019-05-15T13:38:09.487Z,8.25
2019-05-15T13:40:38.998Z,9.00
2019-05-15T13:43:08.402Z,8.10
2019-05-15T13:45:38.693Z,10.63
2019-05-15T13:48:08.935Z,9.40
2019-05-15T13:50:40.190Z,9.18
2019-05-15T13:53:10.666Z,9.05
2019-05-15T13:55:42.337Z,8.23
2019-05-15T13:58:09.064Z,8.05
2019-05-15T14:00:38.906Z,8.45
2019-05-15T14:03:09.109Z,11.08
2019-05-15T14:05:38.529Z,10.13
2019-05-15T14:08:08.066Z,9.53
2019-05-15T14:10:38.558Z,12.13
2019-05-15T14:13:07.016Z,9.05
2019-05-15T14:15:38.051Z,8.10
2019-05-15T14:18:08.379Z,11.45
2019-05-15T14:20:36.186Z,8.38
2019-05-15T14:23:08.711Z,7.55
2019-05-15T14:25:38.337Z,8.40
2019-05-15T14:28:08.946Z,9.68
2019-05-15T14:30:37.061Z,10.55
2019-05-15T14:33:08.228Z,9.00
2019-05-15T14:35:37.768Z,9.75
2019-05-15T14:38:07.522Z,10.23
2019-05-15T14:40:36.346Z,9.60
2019-05-15T14:43:04.999Z,20.77
2019-05-15T14:45:33.567Z,9.63
2019-05-15T14:48:02.136Z,9.95
2019-05-15T14:50:30.694Z,11.22
2019-05-15T14:52:59.279Z,10.55
2019-05-15T14:55:33.370Z,8.78
2019-05-15T14:58:01.290Z,10.25
2019-05-15T15:00:34.464Z,9.43
2019-05-15T15:03:00.176Z,15.68
2019-05-15T15:05:29.028Z,13.03
2019-05-15T15:07:58.574Z,17.73
2019-05-15T15:10:29.167Z,11.65
2019-05-15T15:12:58.621Z,11.90
2019-05-15T15:15:28.724Z,8.70
2019-05-15T15:17:58.337Z,9.38
2019-05-15T15:20:28.503Z,9.25
2019-05-15T15:22:58.824Z,13.18
2019-05-15T15:25:27.438Z,12.60
2019-05-15T15:27:58.452Z,8.50
2019-05-15T15:30:26.354Z,8.85
2019-05-15T15:32:54.936Z,11.18
2019-05-15T15:35:23.545Z,12.80
2019-05-15T15:37:52.104Z,14.28
2019-05-15T15:40:21.046Z,14.15
2019-05-15T15:42:49.709Z,9.55
2019-05-15T15:45:19.294Z,11.08
2019-05-15T15:47:48.367Z,16.97
2019-05-15T15:50:18.342Z,16.90
2019-05-15T15:52:48.905Z,10.05
2019-05-15T15:55:18.484Z,13.18
2019-05-15T15:57:48.739Z,12.23
2019-05-15T16:00:18.957Z,14.20
2019-05-15T16:02:48.397Z,16.87
2019-05-15T16:05:19.101Z,18.52
2019-05-15T16:07:48.488Z,14.60
2019-05-15T16:10:19.020Z,16.17
2019-05-15T16:12:49.226Z,23.27
2019-05-15T16:15:18.351Z,17.48
2019-05-15T16:17:48.806Z,48.85
2019-05-15T16:20:18.952Z,34.70
2019-05-15T16:22:48.546Z,27.02
2019-05-15T16:25:18.549Z,18.77
2019-05-15T16:27:48.774Z,17.80
2019-05-15T16:30:18.831Z,14.53
2019-05-15T16:32:47.549Z,18.95
2019-05-15T16:35:18.400Z,16.80
2019-05-15T16:37:48.991Z,17.65
2019-05-15T16:40:18.377Z,17.55
2019-05-15T16:42:48.844Z,20.17
2019-05-15T16:45:18.409Z,16.50
2019-05-15T16:47:48.353Z,22.55
2019-05-15T16:50:18.087Z,20.17
2019-05-15T16:52:49.066Z,20.55
2019-05-15T16:55:17.499Z,22.52
2019-05-15T16:57:47.953Z,22.65
2019-05-15T17:00:18.676Z,22.75
2019-05-15T17:02:48.215Z,24.57
2019-05-15T17:05:18.565Z,28.65
2019-05-15T17:07:48.864Z,25.92
2019-05-15T17:10:18.106Z,38.08
2019-05-15T17:12:49.039Z,39.15
2019-05-15T17:15:17.236Z,35.55
2019-05-15T17:17:45.806Z,44.33
2019-05-15T17:20:14.654Z,36.90
2019-05-15T17:22:43.301Z,29.67
2019-05-15T17:25:12.074Z,27.10
2019-05-15T17:27:41.292Z,28.20
2019-05-15T17:30:10.376Z,23.20
2019-05-15T17:32:40.108Z,26.20
2019-05-15T17:35:10.221Z,26.50
2019-05-15T17:37:39.560Z,50.80
2019-05-15T17:40:09.477Z,33.05
2019-05-15T17:42:38.904Z,29.10
2019-05-15T17:45:09.651Z,31.80
2019-05-15T17:47:39.432Z,29.00
2019-05-15T17:50:10.078Z,30.50
2019-05-15T17:52:39.155Z,38.00
2019-05-15T17:55:08.344Z,34.53
2019-05-15T17:57:38.667Z,65.03
2019-05-15T18:00:12.180Z,46.73
2019-05-15T18:02:39.381Z,35.95
2019-05-15T18:05:08.993Z,37.95
2019-05-15T18:07:39.051Z,39.73
2019-05-15T18:10:08.695Z,35.23
2019-05-15T18:12:38.911Z,33.35
2019-05-15T18:15:09.172Z,32.50
2019-05-15T18:17:39.182Z,32.13
2019-05-15T18:20:10.183Z,33.83
2019-05-15T18:22:39.308Z,37.93
2019-05-15T18:25:09.044Z,39.18
2019-05-15T18:27:38.766Z,34.88
2019-05-15T18:30:09.169Z,35.73
2019-05-15T18:32:39.086Z,35.38
2019-05-15T18:35:08.639Z,34.88
2019-05-15T18:37:39.355Z,32.70
2019-05-15T18:40:09.939Z,32.23
2019-05-15T18:42:39.464Z,34.75
2019-05-15T18:45:09.103Z,40.88
2019-05-15T18:47:39.012Z,44.85
2019-05-15T18:50:12.714Z,30.30
2019-05-15T18:52:38.850Z,28.07
2019-05-15T18:55:08.444Z,36.00
2019-05-15T18:57:38.610Z,31.42
2019-05-15T19:00:08.813Z,34.67
2019-05-15T19:02:39.203Z,33.67
2019-05-15T19:05:08.382Z,40.08
2019-05-15T19:07:38.319Z,40.83
2019-05-15T19:10:08.847Z,41.05
2019-05-15T19:12:38.013Z,44.75
2019-05-15T19:15:09.189Z,44.00
2019-05-15T19:17:38.885Z,46.35
2019-05-15T19:20:09.085Z,48.23
2019-05-15T19:22:40.842Z,55.40
2019-05-15T19:25:09.780Z,56.98
2019-05-15T19:27:39.316Z,50.73
2019-05-15T19:30:10.460Z,41.70
2019-05-15T19:32:39.105Z,43.08
2019-05-15T19:35:08.298Z,41.37
2019-05-15T19:37:38.296Z,37.23
2019-05-15T19:40:08.621Z,46.60
2019-05-15T19:42:38.334Z,47.85
2019-05-15T19:45:09.058Z,47.30
2019-05-15T19:47:38.839Z,51.88
2019-05-15T19:50:09.671Z,52.00
2019-05-15T19:52:38.498Z,54.80
2019-05-15T19:55:08.980Z,53.85
2019-05-15T19:57:39.040Z,52.73
2019-05-15T20:00:10.159Z,51.35
2019-05-15T20:02:38.697Z,50.80
2019-05-15T20:05:09.123Z,50.10
2019-05-15T20:07:38.919Z,46.75
2019-05-15T20:10:09.757Z,48.87
2019-05-15T20:12:39.229Z,44.93
2019-05-15T20:15:09.296Z,50.28
2019-05-15T20:17:38.779Z,74.05
2019-05-15T20:20:09.418Z,55.65
2019-05-15T20:22:40.382Z,43.35
2019-05-15T20:25:08.960Z,40.75
2019-05-15T20:27:39.174Z,41.02
2019-05-15T20:30:08.927Z,40.73
2019-05-15T20:32:38.594Z,40.40
2019-05-15T20:35:08.988Z,39.83
2019-05-15T20:37:39.014Z,38.60
2019-05-15T20:40:09.375Z,42.13
2019-05-15T20:42:38.755Z,39.42
2019-05-15T20:45:12.431Z,38.75
2019-05-15T20:47:39.599Z,41.20
2019-05-15T20:50:09.547Z,39.27
2019-05-15T20:52:39.605Z,40.33
2019-05-15T20:55:08.971Z,40.60
2019-05-15T20:57:40.809Z,41.08
2019-05-15T21:00:09.131Z,42.00
2019-05-15T21:02:38.170Z,39.30
2019-05-15T21:05:08.782Z,43.48
2019-05-15T21:07:40.057Z,43.52
2019-05-15T21:10:09.542Z,40.15
2019-05-15T21:12:41.018Z,43.48
2019-05-15T21:15:09.536Z,40.45
2019-05-15T21:17:40.288Z,39.10
2019-05-15T21:20:09.728Z,38.15
2019-05-15T21:22:42.335Z,37.13
2019-05-15T21:25:10.673Z,37.88
2019-05-15T21:27:43.202Z,39.33
2019-05-15T21:30:11.004Z,42.08
2019-05-15T21:32:39.569Z,41.35
2019-05-15T21:35:09.405Z,37.23
2019-05-15T21:37:39.245Z,39.50
2019-05-15T21:40:09.303Z,42.53
2019-05-15T21:42:41.414Z,39.95
2019-05-15T21:45:14.174Z,37.83
2019-05-15T21:47:39.440Z,39.20
2019-05-15T21:50:08.792Z,41.68
2019-05-15T21:52:39.070Z,55.85
2019-05-15T21:55:09.662Z,39.92
2019-05-15T21:57:42.113Z,39.80
2019-05-15T22:00:21.159Z,37.67
2019-05-15T22:02:50.309Z,40.15
2019-05-15T22:05:19.226Z,38.63
2019-05-15T22:07:50.894Z,36.15
2019-05-15T22:10:19.570Z,39.40
2019-05-15T22:12:48.493Z,36.60
2019-05-15T22:15:18.967Z,37.83
2019-05-15T22:17:49.332Z,36.73
2019-05-15T22:20:19.398Z,37.90
2019-05-15T22:22:50.714Z,34.05
2019-05-15T22:25:19.278Z,38.23
2019-05-15T22:27:48.640Z,35.50
2019-05-15T22:30:18.601Z,38.15
2019-05-15T22:32:49.393Z,35.30
2019-05-15T22:35:18.787Z,38.90
2019-05-15T22:37:49.367Z,35.73
2019-05-15T22:40:18.582Z,31.95
2019-05-15T22:42:48.640Z,36.93
2019-05-15T22:45:18.630Z,35.55
2019-05-15T22:47:48.337Z,36.48
2019-05-15T22:50:18.978Z,33.33
2019-05-15T22:52:49.371Z,35.38
2019-05-15T22:55:18.451Z,36.28
2019-05-15T22:57:48.158Z,33.55
2019-05-15T23:00:18.910Z,35.30
2019-05-15T23:02:48.825Z,34.18
2019-05-15T23:05:27.361Z,36.80
2019-05-15T23:07:48.321Z,41.53
2019-05-15T23:10:17.963Z,37.38
2019-05-15T23:12:48.547Z,31.50
2019-05-15T23:15:18.889Z,39.20
2019-05-15T23:17:48.716Z,36.08
2019-05-15T23:20:17.750Z,32.30
2019-05-15T23:22:46.456Z,34.25
2019-05-15T23:25:15.432Z,30.10
2019-05-15T23:27:44.004Z,32.50
2019-05-15T23:30:13.376Z,34.75
2019-05-15T23:32:42.160Z,32.38
2019-05-15T23:35:10.862Z,32.13
2019-05-15T23:37:39.476Z,32.40
2019-05-15T23:40:09.052Z,30.30
2019-05-15T23:42:39.007Z,33.85
2019-05-15T23:45:08.562Z,31.12
2019-05-15T23:47:38.476Z,27.15
2019-05-15T23:50:08.520Z,29.85
2019-05-15T23:52:38.548Z,30.60
2019-05-15T23:55:08.611Z,32.08
2019-05-15T23:57:39.216Z,31.07
